sensor_id;sensor_type;location;lat;lon;timestamp;temperature;humidity
69776;DHT22;57049;51.450;-2.516;2022-08-21T00:02:23;15.76;82.23
69776;DHT22;57049;51.450;-2.516;2022-08-21T00:04:50;15.78;82.11
69776;DHT22;57049;51.450;-2.516;2022-08-21T00:07:17;15.73;82.44
69776;DHT22;57049;51.450;-2.516;2022-08-21T00:09:43;15.66;83.13
69776;DHT22;57049;51.450;-2.516;2022-08-21T00:12:09;15.62;82.47
69776;DHT22;57049;51.450;-2.516;2022-08-21T00:14:35;15.66;82.94
69776;DHT22;57049;51.450;-2.516;2022-08-21T00:17:01;15.62;83.02
69776;DHT22;57049;51.450;-2.516;2022-08-21T00:19:27;15.61;83.00
69776;DHT22;57049;51.450;-2.516;2022-08-21T00:21:53;15.54;83.55
69776;DHT22;57049;51.450;-2.516;2022-08-21T00:24:20;15.56;83.70
69776;DHT22;57049;51.450;-2.516;2022-08-21T00:26:46;15.54;84.21
69776;DHT22;57049;51.450;-2.516;2022-08-21T00:29:13;15.54;84.23
69776;DHT22;57049;51.450;-2.516;2022-08-21T00:31:39;15.51;84.85
69776;DHT22;57049;51.450;-2.516;2022-08-21T00:34:04;15.49;84.82
69776;DHT22;57049;51.450;-2.516;2022-08-21T00:36:30;15.41;85.17
69776;DHT22;57049;51.450;-2.516;2022-08-21T00:38:56;15.39;85.67
69776;DHT22;57049;51.450;-2.516;2022-08-21T00:41:22;15.39;85.51
69776;DHT22;57049;51.450;-2.516;2022-08-21T00:43:49;15.35;85.96
69776;DHT22;57049;51.450;-2.516;2022-08-21T00:46:15;15.36;85.87
69776;DHT22;57049;51.450;-2.516;2022-08-21T00:48:41;15.36;86.06
69776;DHT22;57049;51.450;-2.516;2022-08-21T00:51:10;15.41;85.92
69776;DHT22;57049;51.450;-2.516;2022-08-21T00:53:38;15.41;85.90
69776;DHT22;57049;51.450;-2.516;2022-08-21T00:56:05;15.35;86.29
69776;DHT22;57049;51.450;-2.516;2022-08-21T00:58:32;15.31;86.21
69776;DHT22;57049;51.450;-2.516;2022-08-21T01:01:02;15.35;86.32
69776;DHT22;57049;51.450;-2.516;2022-08-21T01:03:28;15.38;86.75
69776;DHT22;57049;51.450;-2.516;2022-08-21T01:05:53;15.38;86.53
69776;DHT22;57049;51.450;-2.516;2022-08-21T01:08:19;15.34;87.07
69776;DHT22;57049;51.450;-2.516;2022-08-21T01:10:46;15.31;86.94
69776;DHT22;57049;51.450;-2.516;2022-08-21T01:13:14;15.38;86.95
69776;DHT22;57049;51.450;-2.516;2022-08-21T01:15:44;15.35;87.11
69776;DHT22;57049;51.450;-2.516;2022-08-21T01:18:12;15.34;87.11
69776;DHT22;57049;51.450;-2.516;2022-08-21T01:20:45;15.31;87.36
69776;DHT22;57049;51.450;-2.516;2022-08-21T01:23:11;15.31;87.22
69776;DHT22;57049;51.450;-2.516;2022-08-21T01:25:37;15.30;87.30
69776;DHT22;57049;51.450;-2.516;2022-08-21T01:28:09;15.28;87.26
69776;DHT22;57049;51.450;-2.516;2022-08-21T01:30:36;15.25;87.56
69776;DHT22;57049;51.450;-2.516;2022-08-21T01:33:02;15.23;87.66
69776;DHT22;57049;51.450;-2.516;2022-08-21T01:35:29;15.15;87.87
69776;DHT22;57049;51.450;-2.516;2022-08-21T01:37:54;15.14;88.31
69776;DHT22;57049;51.450;-2.516;2022-08-21T01:40:19;15.10;88.07
69776;DHT22;57049;51.450;-2.516;2022-08-21T01:42:47;15.11;88.25
69776;DHT22;57049;51.450;-2.516;2022-08-21T01:45:13;15.08;88.42
69776;DHT22;57049;51.450;-2.516;2022-08-21T01:47:39;15.05;88.68
69776;DHT22;57049;51.450;-2.516;2022-08-21T01:50:07;15.07;88.52
69776;DHT22;57049;51.450;-2.516;2022-08-21T01:52:33;15.01;88.78
69776;DHT22;57049;51.450;-2.516;2022-08-21T01:54:59;14.97;88.55
69776;DHT22;57049;51.450;-2.516;2022-08-21T01:57:25;14.95;88.58
69776;DHT22;57049;51.450;-2.516;2022-08-21T01:59:50;14.87;88.98
69776;DHT22;57049;51.450;-2.516;2022-08-21T02:02:16;14.83;88.85
69776;DHT22;57049;51.450;-2.516;2022-08-21T02:04:41;14.79;88.74
69776;DHT22;57049;51.450;-2.516;2022-08-21T02:07:07;14.76;89.22
69776;DHT22;57049;51.450;-2.516;2022-08-21T02:09:32;14.74;89.47
69776;DHT22;57049;51.450;-2.516;2022-08-21T02:11:58;14.73;89.90
69776;DHT22;57049;51.450;-2.516;2022-08-21T02:14:24;14.72;89.98
69776;DHT22;57049;51.450;-2.516;2022-08-21T02:16:50;14.72;90.07
69776;DHT22;57049;51.450;-2.516;2022-08-21T02:19:16;14.80;89.65
69776;DHT22;57049;51.450;-2.516;2022-08-21T02:21:42;14.79;89.76
69776;DHT22;57049;51.450;-2.516;2022-08-21T02:24:08;14.81;89.90
69776;DHT22;57049;51.450;-2.516;2022-08-21T02:26:33;14.83;89.47
69776;DHT22;57049;51.450;-2.516;2022-08-21T02:28:59;14.79;89.73
69776;DHT22;57049;51.450;-2.516;2022-08-21T02:31:25;14.80;90.05
69776;DHT22;57049;51.450;-2.516;2022-08-21T02:33:51;14.81;89.73
69776;DHT22;57049;51.450;-2.516;2022-08-21T02:36:16;14.81;89.68
69776;DHT22;57049;51.450;-2.516;2022-08-21T02:38:42;14.79;89.99
69776;DHT22;57049;51.450;-2.516;2022-08-21T02:41:14;14.84;89.93
69776;DHT22;57049;51.450;-2.516;2022-08-21T02:43:41;14.79;89.44
69776;DHT22;57049;51.450;-2.516;2022-08-21T02:46:08;14.77;89.26
69776;DHT22;57049;51.450;-2.516;2022-08-21T02:48:34;14.73;89.45
69776;DHT22;57049;51.450;-2.516;2022-08-21T02:51:11;14.64;89.62
69776;DHT22;57049;51.450;-2.516;2022-08-21T02:53:38;14.67;89.69
69776;DHT22;57049;51.450;-2.516;2022-08-21T02:56:06;14.64;89.84
69776;DHT22;57049;51.450;-2.516;2022-08-21T02:58:45;14.73;89.49
69776;DHT22;57049;51.450;-2.516;2022-08-21T03:01:11;14.77;89.30
69776;DHT22;57049;51.450;-2.516;2022-08-21T03:03:39;14.76;89.44
69776;DHT22;57049;51.450;-2.516;2022-08-21T03:06:07;14.76;89.54
69776;DHT22;57049;51.450;-2.516;2022-08-21T03:08:33;14.76;89.57
69776;DHT22;57049;51.450;-2.516;2022-08-21T03:10:59;14.73;89.28
69776;DHT22;57049;51.450;-2.516;2022-08-21T03:13:25;14.70;89.43
69776;DHT22;57049;51.450;-2.516;2022-08-21T03:15:51;14.76;89.24
69776;DHT22;57049;51.450;-2.516;2022-08-21T03:18:17;14.67;89.64
69776;DHT22;57049;51.450;-2.516;2022-08-21T03:20:43;14.70;89.61
69776;DHT22;57049;51.450;-2.516;2022-08-21T03:23:10;14.67;89.53
69776;DHT22;57049;51.450;-2.516;2022-08-21T03:25:37;14.69;89.50
69776;DHT22;57049;51.450;-2.516;2022-08-21T03:28:05;14.67;89.55
69776;DHT22;57049;51.450;-2.516;2022-08-21T03:30:31;14.70;89.45
69776;DHT22;57049;51.450;-2.516;2022-08-21T03:33:00;14.74;89.25
69776;DHT22;57049;51.450;-2.516;2022-08-21T03:35:27;14.74;89.02
69776;DHT22;57049;51.450;-2.516;2022-08-21T03:37:53;14.76;89.04
69776;DHT22;57049;51.450;-2.516;2022-08-21T03:40:19;14.74;89.09
69776;DHT22;57049;51.450;-2.516;2022-08-21T03:42:46;14.72;89.20
69776;DHT22;57049;51.450;-2.516;2022-08-21T03:45:13;14.70;89.19
69776;DHT22;57049;51.450;-2.516;2022-08-21T03:47:38;14.74;89.46
69776;DHT22;57049;51.450;-2.516;2022-08-21T03:50:04;14.67;89.63
69776;DHT22;57049;51.450;-2.516;2022-08-21T03:52:30;14.69;89.51
69776;DHT22;57049;51.450;-2.516;2022-08-21T03:54:56;14.70;89.63
69776;DHT22;57049;51.450;-2.516;2022-08-21T03:57:21;14.73;89.55
69776;DHT22;57049;51.450;-2.516;2022-08-21T03:59:47;14.69;89.54
69776;DHT22;57049;51.450;-2.516;2022-08-21T04:02:13;14.69;89.20
69776;DHT22;57049;51.450;-2.516;2022-08-21T04:04:42;14.73;89.40
69776;DHT22;57049;51.450;-2.516;2022-08-21T04:07:08;14.74;89.90
69776;DHT22;57049;51.450;-2.516;2022-08-21T04:09:33;14.72;89.75
69776;DHT22;57049;51.450;-2.516;2022-08-21T04:11:59;14.70;89.66
69776;DHT22;57049;51.450;-2.516;2022-08-21T04:14:25;14.72;89.44
69776;DHT22;57049;51.450;-2.516;2022-08-21T04:16:50;14.69;89.72
69776;DHT22;57049;51.450;-2.516;2022-08-21T04:19:16;14.64;89.46
69776;DHT22;57049;51.450;-2.516;2022-08-21T04:21:42;14.62;90.24
69776;DHT22;57049;51.450;-2.516;2022-08-21T04:24:09;14.60;89.94
69776;DHT22;57049;51.450;-2.516;2022-08-21T04:26:36;14.56;90.11
69776;DHT22;57049;51.450;-2.516;2022-08-21T04:29:03;14.53;90.06
69776;DHT22;57049;51.450;-2.516;2022-08-21T04:31:30;14.55;90.17
69776;DHT22;57049;51.450;-2.516;2022-08-21T04:33:55;14.53;90.49
69776;DHT22;57049;51.450;-2.516;2022-08-21T04:36:22;14.52;90.51
69776;DHT22;57049;51.450;-2.516;2022-08-21T04:38:48;14.55;90.50
69776;DHT22;57049;51.450;-2.516;2022-08-21T04:41:13;14.59;90.63
69776;DHT22;57049;51.450;-2.516;2022-08-21T04:43:39;14.56;90.53
69776;DHT22;57049;51.450;-2.516;2022-08-21T04:46:05;14.57;90.33
69776;DHT22;57049;51.450;-2.516;2022-08-21T04:48:31;14.62;90.26
69776;DHT22;57049;51.450;-2.516;2022-08-21T04:51:03;14.59;90.27
69776;DHT22;57049;51.450;-2.516;2022-08-21T04:53:34;14.62;90.49
69776;DHT22;57049;51.450;-2.516;2022-08-21T04:56:08;14.63;90.05
69776;DHT22;57049;51.450;-2.516;2022-08-21T04:58:36;14.67;90.64
69776;DHT22;57049;51.450;-2.516;2022-08-21T05:01:05;14.72;89.93
69776;DHT22;57049;51.450;-2.516;2022-08-21T05:03:33;14.79;89.75
69776;DHT22;57049;51.450;-2.516;2022-08-21T05:06:00;14.83;89.34
69776;DHT22;57049;51.450;-2.516;2022-08-21T05:08:28;14.85;89.50
69776;DHT22;57049;51.450;-2.516;2022-08-21T05:10:54;14.90;89.42
69776;DHT22;57049;51.450;-2.516;2022-08-21T05:13:20;14.98;89.04
69776;DHT22;57049;51.450;-2.516;2022-08-21T05:15:46;15.04;89.28
69776;DHT22;57049;51.450;-2.516;2022-08-21T05:18:12;15.12;88.37
69776;DHT22;57049;51.450;-2.516;2022-08-21T05:20:37;15.14;88.33
69776;DHT22;57049;51.450;-2.516;2022-08-21T05:23:10;15.17;88.07
69776;DHT22;57049;51.450;-2.516;2022-08-21T05:25:36;15.14;88.12
69776;DHT22;57049;51.450;-2.516;2022-08-21T05:28:03;15.17;88.03
69776;DHT22;57049;51.450;-2.516;2022-08-21T05:30:29;15.11;87.83
69776;DHT22;57049;51.450;-2.516;2022-08-21T05:32:59;15.12;87.92
69776;DHT22;57049;51.450;-2.516;2022-08-21T05:35:25;15.17;87.95
69776;DHT22;57049;51.450;-2.516;2022-08-21T05:37:51;15.14;87.83
69776;DHT22;57049;51.450;-2.516;2022-08-21T05:40:16;15.18;87.90
69776;DHT22;57049;51.450;-2.516;2022-08-21T05:42:43;15.23;87.76
69776;DHT22;57049;51.450;-2.516;2022-08-21T05:45:08;15.27;87.36
69776;DHT22;57049;51.450;-2.516;2022-08-21T05:47:34;15.27;87.66
69776;DHT22;57049;51.450;-2.516;2022-08-21T05:49:59;15.34;87.20
69776;DHT22;57049;51.450;-2.516;2022-08-21T05:52:25;15.32;87.15
69776;DHT22;57049;51.450;-2.516;2022-08-21T05:54:50;15.35;86.72
69776;DHT22;57049;51.450;-2.516;2022-08-21T05:57:18;15.36;86.36
69776;DHT22;57049;51.450;-2.516;2022-08-21T05:59:44;15.38;86.60
69776;DHT22;57049;51.450;-2.516;2022-08-21T06:02:10;15.38;86.33
69776;DHT22;57049;51.450;-2.516;2022-08-21T06:04:37;15.39;86.65
69776;DHT22;57049;51.450;-2.516;2022-08-21T06:07:03;15.45;86.36
69776;DHT22;57049;51.450;-2.516;2022-08-21T06:09:29;15.44;86.12
69776;DHT22;57049;51.450;-2.516;2022-08-21T06:11:54;15.48;86.18
69776;DHT22;57049;51.450;-2.516;2022-08-21T06:14:19;15.48;86.08
69776;DHT22;57049;51.450;-2.516;2022-08-21T06:16:45;15.51;86.27
69776;DHT22;57049;51.450;-2.516;2022-08-21T06:19:10;15.45;86.54
69776;DHT22;57049;51.450;-2.516;2022-08-21T06:21:36;15.44;86.53
69776;DHT22;57049;51.450;-2.516;2022-08-21T06:24:01;15.44;86.78
69776;DHT22;57049;51.450;-2.516;2022-08-21T06:26:27;15.36;86.80
69776;DHT22;57049;51.450;-2.516;2022-08-21T06:28:53;15.42;86.85
69776;DHT22;57049;51.450;-2.516;2022-08-21T06:31:22;15.45;86.74
69776;DHT22;57049;51.450;-2.516;2022-08-21T06:33:48;15.42;86.90
69776;DHT22;57049;51.450;-2.516;2022-08-21T06:36:14;15.48;86.94
69776;DHT22;57049;51.450;-2.516;2022-08-21T06:38:40;15.54;86.43
69776;DHT22;57049;51.450;-2.516;2022-08-21T06:41:06;15.58;86.31
69776;DHT22;57049;51.450;-2.516;2022-08-21T06:43:32;15.62;86.11
69776;DHT22;57049;51.450;-2.516;2022-08-21T06:45:57;15.72;86.10
69776;DHT22;57049;51.450;-2.516;2022-08-21T06:48:23;15.79;85.74
69776;DHT22;57049;51.450;-2.516;2022-08-21T06:50:49;15.86;85.91
69776;DHT22;57049;51.450;-2.516;2022-08-21T06:53:18;15.95;85.92
69776;DHT22;57049;51.450;-2.516;2022-08-21T06:55:44;16.03;85.10
69776;DHT22;57049;51.450;-2.516;2022-08-21T06:58:10;16.13;85.36
69776;DHT22;57049;51.450;-2.516;2022-08-21T07:00:39;16.24;85.35
69776;DHT22;57049;51.450;-2.516;2022-08-21T07:03:05;16.40;84.33
69776;DHT22;57049;51.450;-2.516;2022-08-21T07:05:30;16.56;84.01
69776;DHT22;57049;51.450;-2.516;2022-08-21T07:07:56;16.71;83.81
69776;DHT22;57049;51.450;-2.516;2022-08-21T07:10:26;16.79;82.38
69776;DHT22;57049;51.450;-2.516;2022-08-21T07:12:52;17.07;82.08
69776;DHT22;57049;51.450;-2.516;2022-08-21T07:15:19;17.36;81.04
69776;DHT22;57049;51.450;-2.516;2022-08-21T07:17:44;17.39;80.58
69776;DHT22;57049;51.450;-2.516;2022-08-21T07:20:10;17.43;80.72
69776;DHT22;57049;51.450;-2.516;2022-08-21T07:22:36;17.39;80.85
69776;DHT22;57049;51.450;-2.516;2022-08-21T07:25:04;17.42;81.05
69776;DHT22;57049;51.450;-2.516;2022-08-21T07:27:29;17.42;80.88
69776;DHT22;57049;51.450;-2.516;2022-08-21T07:29:57;17.29;80.79
69776;DHT22;57049;51.450;-2.516;2022-08-21T07:32:22;17.16;81.45
69776;DHT22;57049;51.450;-2.516;2022-08-21T07:34:48;17.09;81.66
69776;DHT22;57049;51.450;-2.516;2022-08-21T07:37:13;17.05;81.32
69776;DHT22;57049;51.450;-2.516;2022-08-21T07:39:39;17.11;81.00
69776;DHT22;57049;51.450;-2.516;2022-08-21T07:42:04;17.08;81.55
69776;DHT22;57049;51.450;-2.516;2022-08-21T07:44:30;17.12;81.17
69776;DHT22;57049;51.450;-2.516;2022-08-21T07:46:55;17.11;81.30
69776;DHT22;57049;51.450;-2.516;2022-08-21T07:49:21;17.02;81.61
69776;DHT22;57049;51.450;-2.516;2022-08-21T07:51:46;16.99;81.65
69776;DHT22;57049;51.450;-2.516;2022-08-21T07:54:11;16.94;81.74
69776;DHT22;57049;51.450;-2.516;2022-08-21T07:56:37;16.99;82.20
69776;DHT22;57049;51.450;-2.516;2022-08-21T07:59:02;17.02;81.13
69776;DHT22;57049;51.450;-2.516;2022-08-21T08:01:28;17.05;82.64
69776;DHT22;57049;51.450;-2.516;2022-08-21T08:03:54;17.05;83.00
69776;DHT22;57049;51.450;-2.516;2022-08-21T08:06:20;17.05;81.72
69776;DHT22;57049;51.450;-2.516;2022-08-21T08:08:45;16.99;81.58
69776;DHT22;57049;51.450;-2.516;2022-08-21T08:11:12;16.98;81.03
69776;DHT22;57049;51.450;-2.516;2022-08-21T08:13:51;16.98;80.41
69776;DHT22;57049;51.450;-2.516;2022-08-21T08:16:18;17.05;80.34
69776;DHT22;57049;51.450;-2.516;2022-08-21T08:18:44;17.09;79.46
69776;DHT22;57049;51.450;-2.516;2022-08-21T08:21:13;17.19;80.20
69776;DHT22;57049;51.450;-2.516;2022-08-21T08:23:39;17.52;78.79
69776;DHT22;57049;51.450;-2.516;2022-08-21T08:26:05;18.01;78.24
69776;DHT22;57049;51.450;-2.516;2022-08-21T08:28:31;18.21;76.50
69776;DHT22;57049;51.450;-2.516;2022-08-21T08:30:57;18.21;76.25
69776;DHT22;57049;51.450;-2.516;2022-08-21T08:33:23;18.35;75.29
69776;DHT22;57049;51.450;-2.516;2022-08-21T08:35:50;18.42;75.81
69776;DHT22;57049;51.450;-2.516;2022-08-21T08:38:18;18.32;76.38
69776;DHT22;57049;51.450;-2.516;2022-08-21T08:41:04;18.17;75.22
69776;DHT22;57049;51.450;-2.516;2022-08-21T08:43:33;18.08;75.69
69776;DHT22;57049;51.450;-2.516;2022-08-21T08:46:03;18.22;75.38
69776;DHT22;57049;51.450;-2.516;2022-08-21T08:48:51;18.31;75.65
69776;DHT22;57049;51.450;-2.516;2022-08-21T08:54:11;19.10;73.76
69776;DHT22;57049;51.450;-2.516;2022-08-21T08:56:38;19.28;72.97
69776;DHT22;57049;51.450;-2.516;2022-08-21T08:59:14;19.65;71.03
69776;DHT22;57049;51.450;-2.516;2022-08-21T09:01:40;20.24;70.14
69776;DHT22;57049;51.450;-2.516;2022-08-21T09:04:06;20.43;68.63
69776;DHT22;57049;51.450;-2.516;2022-08-21T09:07:00;20.66;68.33
69776;DHT22;57049;51.450;-2.516;2022-08-21T09:12:18;20.84;67.27
69776;DHT22;57049;51.450;-2.516;2022-08-21T09:15:13;20.72;67.03
69776;DHT22;57049;51.450;-2.516;2022-08-21T09:26:22;20.87;66.35
69776;DHT22;57049;51.450;-2.516;2022-08-21T09:28:54;20.89;67.64
69776;DHT22;57049;51.450;-2.516;2022-08-21T09:31:25;21.04;65.47
69776;DHT22;57049;51.450;-2.516;2022-08-21T09:34:00;20.96;66.75
69776;DHT22;57049;51.450;-2.516;2022-08-21T09:36:47;20.93;66.90
69776;DHT22;57049;51.450;-2.516;2022-08-21T09:39:25;21.07;66.61
69776;DHT22;57049;51.450;-2.516;2022-08-21T09:42:00;21.30;66.70
69776;DHT22;57049;51.450;-2.516;2022-08-21T09:44:28;21.34;64.23
69776;DHT22;57049;51.450;-2.516;2022-08-21T09:46:54;21.30;64.87
69776;DHT22;57049;51.450;-2.516;2022-08-21T09:49:31;21.62;65.14
69776;DHT22;57049;51.450;-2.516;2022-08-21T09:51:58;21.91;63.36
69776;DHT22;57049;51.450;-2.516;2022-08-21T09:54:33;22.23;62.76
69776;DHT22;57049;51.450;-2.516;2022-08-21T09:57:11;22.39;59.21
69776;DHT22;57049;51.450;-2.516;2022-08-21T10:00:23;22.32;58.53
69776;DHT22;57049;51.450;-2.516;2022-08-21T10:02:49;22.32;58.90
69776;DHT22;57049;51.450;-2.516;2022-08-21T10:05:24;22.52;56.41
69776;DHT22;57049;51.450;-2.516;2022-08-21T10:07:49;22.70;59.10
69776;DHT22;57049;51.450;-2.516;2022-08-21T10:10:22;22.84;60.84
69776;DHT22;57049;51.450;-2.516;2022-08-21T10:13:15;23.14;55.27
69776;DHT22;57049;51.450;-2.516;2022-08-21T10:18:29;23.32;56.36
69776;DHT22;57049;51.450;-2.516;2022-08-21T10:24:05;23.22;56.25
69776;DHT22;57049;51.450;-2.516;2022-08-21T10:30:00;23.37;56.63
69776;DHT22;57049;51.450;-2.516;2022-08-21T10:37:54;23.35;53.82
69776;DHT22;57049;51.450;-2.516;2022-08-21T10:43:08;23.45;55.79
69776;DHT22;57049;51.450;-2.516;2022-08-21T10:50:59;23.59;53.40
69776;DHT22;57049;51.450;-2.516;2022-08-21T10:53:40;23.45;52.14
69776;DHT22;57049;51.450;-2.516;2022-08-21T11:01:39;23.25;51.57
69776;DHT22;57049;51.450;-2.516;2022-08-21T11:04:24;23.03;51.77
69776;DHT22;57049;51.450;-2.516;2022-08-21T11:06:57;23.10;53.05
69776;DHT22;57049;51.450;-2.516;2022-08-21T11:09:26;22.93;53.62
69776;DHT22;57049;51.450;-2.516;2022-08-21T11:11:59;23.31;53.52
69776;DHT22;57049;51.450;-2.516;2022-08-21T11:17:13;23.14;53.94
69776;DHT22;57049;51.450;-2.516;2022-08-21T11:19:42;23.01;54.31
69776;DHT22;57049;51.450;-2.516;2022-08-21T11:22:31;22.95;52.94
69776;DHT22;57049;51.450;-2.516;2022-08-21T11:27:54;23.03;53.79
69776;DHT22;57049;51.450;-2.516;2022-08-21T11:30:25;23.34;52.27
69776;DHT22;57049;51.450;-2.516;2022-08-21T11:33:22;23.75;52.60
69776;DHT22;57049;51.450;-2.516;2022-08-21T11:36:07;23.65;51.42
69776;DHT22;57049;51.450;-2.516;2022-08-21T11:38:42;23.44;52.22
69776;DHT22;57049;51.450;-2.516;2022-08-21T11:52:16;23.66;53.26
69776;DHT22;57049;51.450;-2.516;2022-08-21T11:54:53;23.49;53.39
69776;DHT22;57049;51.450;-2.516;2022-08-21T11:57:25;23.26;54.27
69776;DHT22;57049;51.450;-2.516;2022-08-21T12:02:36;24.30;52.73
69776;DHT22;57049;51.450;-2.516;2022-08-21T12:05:09;24.64;52.67
69776;DHT22;57049;51.450;-2.516;2022-08-21T12:10:07;24.43;50.50
69776;DHT22;57049;51.450;-2.516;2022-08-21T12:12:36;24.56;49.82
69776;DHT22;57049;51.450;-2.516;2022-08-21T12:15:17;24.92;49.35
69776;DHT22;57049;51.450;-2.516;2022-08-21T12:17:59;24.51;50.10
69776;DHT22;57049;51.450;-2.516;2022-08-21T12:23:28;24.05;49.91
69776;DHT22;57049;51.450;-2.516;2022-08-21T12:26:02;23.87;51.82
69776;DHT22;57049;51.450;-2.516;2022-08-21T12:28:29;24.48;53.96
69776;DHT22;57049;51.450;-2.516;2022-08-21T12:30:56;25.15;50.47
69776;DHT22;57049;51.450;-2.516;2022-08-21T12:33:29;24.88;50.76
69776;DHT22;57049;51.450;-2.516;2022-08-21T12:36:28;24.37;53.31
69776;DHT22;57049;51.450;-2.516;2022-08-21T12:39:01;24.17;53.25
69776;DHT22;57049;51.450;-2.516;2022-08-21T12:41:48;24.14;55.00
69776;DHT22;57049;51.450;-2.516;2022-08-21T12:44:17;23.90;54.04
69776;DHT22;57049;51.450;-2.516;2022-08-21T12:46:50;23.65;53.78
69776;DHT22;57049;51.450;-2.516;2022-08-21T12:49:27;23.55;55.05
69776;DHT22;57049;51.450;-2.516;2022-08-21T12:52:16;23.67;55.77
69776;DHT22;57049;51.450;-2.516;2022-08-21T12:54:45;23.80;53.94
69776;DHT22;57049;51.450;-2.516;2022-08-21T12:57:26;23.80;54.29
69776;DHT22;57049;51.450;-2.516;2022-08-21T12:59:57;23.62;55.61
69776;DHT22;57049;51.450;-2.516;2022-08-21T13:02:35;23.69;53.78
69776;DHT22;57049;51.450;-2.516;2022-08-21T13:05:05;23.72;53.84
69776;DHT22;57049;51.450;-2.516;2022-08-21T13:07:33;24.28;53.12
69776;DHT22;57049;51.450;-2.516;2022-08-21T13:10:16;24.09;53.58
69776;DHT22;57049;51.450;-2.516;2022-08-21T13:12:43;24.27;54.39
69776;DHT22;57049;51.450;-2.516;2022-08-21T13:15:10;24.13;54.28
69776;DHT22;57049;51.450;-2.516;2022-08-21T13:17:39;24.03;54.09
69776;DHT22;57049;51.450;-2.516;2022-08-21T13:20:18;23.72;55.40
69776;DHT22;57049;51.450;-2.516;2022-08-21T13:22:44;23.83;53.34
69776;DHT22;57049;51.450;-2.516;2022-08-21T13:25:16;23.83;54.27
69776;DHT22;57049;51.450;-2.516;2022-08-21T13:27:43;23.80;55.55
69776;DHT22;57049;51.450;-2.516;2022-08-21T13:30:20;23.85;55.22
69776;DHT22;57049;51.450;-2.516;2022-08-21T13:32:54;23.99;55.72
69776;DHT22;57049;51.450;-2.516;2022-08-21T13:38:27;25.86;50.79
69776;DHT22;57049;51.450;-2.516;2022-08-21T13:40:59;26.05;48.57
69776;DHT22;57049;51.450;-2.516;2022-08-21T13:43:32;26.05;49.72
69776;DHT22;57049;51.450;-2.516;2022-08-21T13:45:59;26.13;48.94
69776;DHT22;57049;51.450;-2.516;2022-08-21T13:48:30;26.28;49.86
69776;DHT22;57049;51.450;-2.516;2022-08-21T13:50:57;25.38;50.12
69776;DHT22;57049;51.450;-2.516;2022-08-21T13:56:28;24.40;52.28
69776;DHT22;57049;51.450;-2.516;2022-08-21T13:58:55;24.41;51.41
69776;DHT22;57049;51.450;-2.516;2022-08-21T14:01:48;25.09;49.89
69776;DHT22;57049;51.450;-2.516;2022-08-21T14:04:56;25.30;49.63
69776;DHT22;57049;51.450;-2.516;2022-08-21T14:07:31;25.49;48.79
69776;DHT22;57049;51.450;-2.516;2022-08-21T14:10:07;25.47;49.75
69776;DHT22;57049;51.450;-2.516;2022-08-21T14:12:42;25.46;47.98
69776;DHT22;57049;51.450;-2.516;2022-08-21T14:15:09;25.19;50.75
69776;DHT22;57049;51.450;-2.516;2022-08-21T14:17:37;24.77;50.51
69776;DHT22;57049;51.450;-2.516;2022-08-21T14:20:05;24.57;51.15
69776;DHT22;57049;51.450;-2.516;2022-08-21T14:30:51;24.57;52.05
69776;DHT22;57049;51.450;-2.516;2022-08-21T14:33:29;25.18;52.19
69776;DHT22;57049;51.450;-2.516;2022-08-21T14:35:56;25.62;50.06
69776;DHT22;57049;51.450;-2.516;2022-08-21T14:38:23;25.74;50.78
69776;DHT22;57049;51.450;-2.516;2022-08-21T14:40:55;25.07;50.23
69776;DHT22;57049;51.450;-2.516;2022-08-21T14:43:21;24.88;51.90
69776;DHT22;57049;51.450;-2.516;2022-08-21T14:45:47;24.54;52.64
69776;DHT22;57049;51.450;-2.516;2022-08-21T14:48:13;24.24;53.31
69776;DHT22;57049;51.450;-2.516;2022-08-21T14:50:38;24.20;54.33
69776;DHT22;57049;51.450;-2.516;2022-08-21T14:53:04;24.05;52.99
69776;DHT22;57049;51.450;-2.516;2022-08-21T14:55:31;23.95;52.74
69776;DHT22;57049;51.450;-2.516;2022-08-21T14:58:16;23.77;54.08
69776;DHT22;57049;51.450;-2.516;2022-08-21T15:00:42;23.90;53.05
69776;DHT22;57049;51.450;-2.516;2022-08-21T15:03:07;23.99;54.17
69776;DHT22;57049;51.450;-2.516;2022-08-21T15:05:33;23.90;55.03
69776;DHT22;57049;51.450;-2.516;2022-08-21T15:07:58;23.96;55.71
69776;DHT22;57049;51.450;-2.516;2022-08-21T15:10:24;23.92;55.52
69776;DHT22;57049;51.450;-2.516;2022-08-21T15:12:49;23.67;54.11
69776;DHT22;57049;51.450;-2.516;2022-08-21T15:15:15;24.06;55.23
69776;DHT22;57049;51.450;-2.516;2022-08-21T15:17:40;24.09;53.62
69776;DHT22;57049;51.450;-2.516;2022-08-21T15:20:06;24.28;53.07
69776;DHT22;57049;51.450;-2.516;2022-08-21T15:22:34;24.34;53.45
69776;DHT22;57049;51.450;-2.516;2022-08-21T15:25:00;24.27;53.23
69776;DHT22;57049;51.450;-2.516;2022-08-21T15:27:26;24.17;52.36
69776;DHT22;57049;51.450;-2.516;2022-08-21T15:29:52;24.14;52.96
69776;DHT22;57049;51.450;-2.516;2022-08-21T15:32:25;23.95;54.60
69776;DHT22;57049;51.450;-2.516;2022-08-21T15:34:53;24.05;54.08
69776;DHT22;57049;51.450;-2.516;2022-08-21T15:37:19;24.09;53.87
69776;DHT22;57049;51.450;-2.516;2022-08-21T15:39:45;23.93;56.30
69776;DHT22;57049;51.450;-2.516;2022-08-21T15:42:12;23.76;55.90
69776;DHT22;57049;51.450;-2.516;2022-08-21T15:44:41;23.61;57.55
69776;DHT22;57049;51.450;-2.516;2022-08-21T15:47:23;23.56;57.23
69776;DHT22;57049;51.450;-2.516;2022-08-21T15:49:50;23.55;57.33
69776;DHT22;57049;51.450;-2.516;2022-08-21T15:52:19;23.52;57.94
69776;DHT22;57049;51.450;-2.516;2022-08-21T15:54:45;23.52;58.31
69776;DHT22;57049;51.450;-2.516;2022-08-21T15:57:16;23.37;58.15
69776;DHT22;57049;51.450;-2.516;2022-08-21T15:59:45;23.28;58.75
69776;DHT22;57049;51.450;-2.516;2022-08-21T16:02:15;23.42;56.31
69776;DHT22;57049;51.450;-2.516;2022-08-21T16:04:42;23.39;56.72
69776;DHT22;57049;51.450;-2.516;2022-08-21T16:07:07;23.19;57.46
69776;DHT22;57049;51.450;-2.516;2022-08-21T16:09:33;23.19;57.38
69776;DHT22;57049;51.450;-2.516;2022-08-21T16:11:59;23.11;58.38
69776;DHT22;57049;51.450;-2.516;2022-08-21T16:14:26;23.08;57.82
69776;DHT22;57049;51.450;-2.516;2022-08-21T16:16:52;23.08;56.66
69776;DHT22;57049;51.450;-2.516;2022-08-21T16:19:18;22.90;58.43
69776;DHT22;57049;51.450;-2.516;2022-08-21T16:21:43;23.01;58.82
69776;DHT22;57049;51.450;-2.516;2022-08-21T16:24:09;22.86;59.65
69776;DHT22;57049;51.450;-2.516;2022-08-21T16:26:35;22.81;59.40
69776;DHT22;57049;51.450;-2.516;2022-08-21T16:29:01;22.71;58.76
69776;DHT22;57049;51.450;-2.516;2022-08-21T16:31:27;22.75;59.36
69776;DHT22;57049;51.450;-2.516;2022-08-21T16:33:54;22.77;59.95
69776;DHT22;57049;51.450;-2.516;2022-08-21T16:36:20;22.70;59.53
69776;DHT22;57049;51.450;-2.516;2022-08-21T16:38:47;22.57;60.22
69776;DHT22;57049;51.450;-2.516;2022-08-21T16:41:16;22.67;59.24
69776;DHT22;57049;51.450;-2.516;2022-08-21T16:43:42;22.61;59.48
69776;DHT22;57049;51.450;-2.516;2022-08-21T16:46:10;22.73;58.49
69776;DHT22;57049;51.450;-2.516;2022-08-21T16:48:37;22.74;59.08